Time;durP1;ratioP1;P1;durP2;ratioP2;P2;SDS_P1;SDS_P2;PMS_P1;PMS_P2;Temp;Humidity;BMP_temperature;BMP_pressure;BME280_temperature;BME280_humidity;BME280_pressure;Samples;Min_cycle;Max_cycle;Signal;HPM_P1;HPM_P2
2023/07/01 00:03:47;;;;;;;50.40;18.85;;;;;;;;;;10528616;28;20120;-75
2023/07/01 00:08:56;;;;;;;42.30;16.92;;;;;;;;;;10530084;28;20067;-74
2023/07/01 00:14:11;;;;;;;45.55;17.35;;;;;;;;;;10528297;28;20545;-75
2023/07/01 00:19:18;;;;;;;42.55;16.58;;;;;;;;;;10531157;28;20087;-76
2023/07/01 00:24:26;;;;;;;43.17;17.50;;;;;;;;;;10520732;28;20228;-74
2023/07/01 00:29:37;;;;;;;42.40;17.40;;;;;;;;;;10504824;28;20044;-74
2023/07/01 00:34:49;;;;;;;41.92;17.45;;;;;;;;;;10522311;28;20048;-75
2023/07/01 00:39:57;;;;;;;48.15;17.77;;;;;;;;;;10548241;28;20051;-75
2023/07/01 00:45:06;;;;;;;43.47;16.95;;;;;;;;;;10549902;28;20090;-73
2023/07/01 00:50:14;;;;;;;41.28;16.45;;;;;;;;;;10549957;28;20068;-74
2023/07/01 00:55:26;;;;;;;42.78;16.55;;;;;;;;;;10538442;28;20089;-75
2023/07/01 01:00:34;;;;;;;45.88;17.50;;;;;;;;;;10532641;28;20044;-74
2023/07/01 01:05:47;;;;;;;43.72;17.17;;;;;;;;;;10527885;28;20438;-75
2023/07/01 01:10:53;;;;;;;42.20;16.67;;;;;;;;;;10525451;28;20463;-75
2023/07/01 01:16:13;;;;;;;48.28;17.75;;;;;;;;;;10500244;28;20055;-75
2023/07/01 01:21:20;;;;;;;44.53;17.17;;;;;;;;;;10500448;28;20048;-75
2023/07/01 01:26:41;;;;;;;45.00;18.02;;;;;;;;;;10518946;28;20046;-75
2023/07/01 01:31:55;;;;;;;46.15;17.80;;;;;;;;;;10518036;28;20199;-75
2023/07/01 01:37:05;;;;;;;50.15;18.67;;;;;;;;;;10520522;28;20512;-75
2023/07/01 01:47:42;;;;;;;45.85;18.10;;;;;;;;;;10526968;27;22073;-74
2023/07/01 01:52:45;;;;;;;48.42;18.25;;;;;;;;;;10503263;28;20043;-74
2023/07/01 01:57:49;;;;;;;45.40;17.80;;;;;;;;;;10504353;28;20136;-75
2023/07/01 02:02:53;;;;;;;48.63;17.90;;;;;;;;;;10500123;28;20462;-75
2023/07/01 02:07:56;;;;;;;47.90;17.58;;;;;;;;;;10503727;28;20397;-75
2023/07/01 02:13:00;;;;;;;43.42;17.67;;;;;;;;;;10504710;28;20060;-74
2023/07/01 02:18:05;;;;;;;43.28;17.88;;;;;;;;;;10501697;28;20072;-74
2023/07/01 02:23:08;;;;;;;35.53;14.52;;;;;;;;;;10497563;28;20048;-74
2023/07/01 02:28:11;;;;;;;28.90;12.75;;;;;;;;;;10495303;28;20060;-74
2023/07/01 02:33:15;;;;;;;32.10;12.17;;;;;;;;;;10497320;28;20038;-75
2023/07/01 02:38:18;;;;;;;29.95;11.75;;;;;;;;;;10495184;28;20067;-75
2023/07/01 02:43:21;;;;;;;24.90;10.13;;;;;;;;;;10499116;28;20090;-74
2023/07/01 02:48:25;;;;;;;25.73;10.63;;;;;;;;;;10499240;28;20226;-75
2023/07/01 02:53:28;;;;;;;26.27;10.63;;;;;;;;;;10499065;28;20041;-75
2023/07/01 02:58:31;;;;;;;27.37;9.80;;;;;;;;;;10473566;28;20429;-75
2023/07/01 03:03:35;;;;;;;23.02;8.93;;;;;;;;;;10472185;28;20048;-75
2023/07/01 03:08:38;;;;;;;19.75;8.25;;;;;;;;;;10472606;28;20056;-75
2023/07/01 03:13:42;;;;;;;18.60;8.50;;;;;;;;;;10468800;28;20049;-75
2023/07/01 03:18:47;;;;;;;22.75;8.77;;;;;;;;;;10464891;28;20040;-75
2023/07/01 03:23:49;;;;;;;21.55;8.40;;;;;;;;;;10469723;28;20041;-74
2023/07/01 03:28:53;;;;;;;16.13;7.00;;;;;;;;;;10471582;28;20063;-75
2023/07/01 03:33:58;;;;;;;19.13;5.38;;;;;;;;;;10470562;28;20072;-74
2023/07/01 03:39:01;;;;;;;16.63;6.30;;;;;;;;;;10472785;28;20054;-75
2023/07/01 03:44:04;;;;;;;17.52;7.28;;;;;;;;;;10472298;28;20144;-75
2023/07/01 03:49:08;;;;;;;16.45;6.85;;;;;;;;;;10472647;28;20194;-75
2023/07/01 03:54:11;;;;;;;14.05;6.43;;;;;;;;;;10471028;28;20136;-75
2023/07/01 03:59:14;;;;;;;13.77;6.60;;;;;;;;;;10468480;28;20036;-75
2023/07/01 04:04:18;;;;;;;15.63;6.40;;;;;;;;;;10466303;28;20044;-76
2023/07/01 04:09:21;;;;;;;15.95;7.32;;;;;;;;;;10465213;28;20041;-76
2023/07/01 04:14:24;;;;;;;14.35;6.45;;;;;;;;;;10467763;28;20048;-76
2023/07/01 04:19:28;;;;;;;11.83;5.40;;;;;;;;;;10464444;28;20068;-76
2023/07/01 04:24:31;;;;;;;13.10;5.10;;;;;;;;;;10468107;28;20112;-75
2023/07/01 04:29:33;;;;;;;10.00;4.97;;;;;;;;;;10467811;28;20182;-75
2023/07/01 04:34:37;;;;;;;12.33;5.57;;;;;;;;;;10467044;28;20039;-76
2023/07/01 04:39:40;;;;;;;11.75;4.95;;;;;;;;;;10466398;28;20127;-75
2023/07/01 04:44:44;;;;;;;14.48;5.10;;;;;;;;;;10471496;28;20052;-76
2023/07/01 04:49:48;;;;;;;11.50;4.72;;;;;;;;;;10468914;28;20134;-75
2023/07/01 04:54:51;;;;;;;11.00;5.35;;;;;;;;;;10467397;28;20048;-76
2023/07/01 04:59:54;;;;;;;12.38;4.68;;;;;;;;;;10464775;28;20520;-75
2023/07/01 05:04:58;;;;;;;5.10;2.33;;;;;;;;;;10470587;28;20375;-75
2023/07/01 05:10:01;;;;;;;11.70;5.32;;;;;;;;;;10464222;28;20047;-75
2023/07/01 05:15:04;;;;;;;11.80;5.27;;;;;;;;;;10469720;28;20044;-76
2023/07/01 05:20:09;;;;;;;10.00;4.40;;;;;;;;;;10469900;28;20052;-75
2023/07/01 05:25:12;;;;;;;12.90;5.20;;;;;;;;;;10468280;28;20047;-75
2023/07/01 05:30:15;;;;;;;12.63;4.85;;;;;;;;;;10468480;28;20084;-75
2023/07/01 05:35:19;;;;;;;12.27;5.23;;;;;;;;;;10465811;28;20032;-75
2023/07/01 05:40:21;;;;;;;11.70;5.22;;;;;;;;;;10470172;28;20115;-74
2023/07/01 05:45:24;;;;;;;12.33;5.67;;;;;;;;;;10461810;28;20403;-75
2023/07/01 05:50:28;;;;;;;12.57;5.93;;;;;;;;;;10466937;28;20153;-76
2023/07/01 05:55:30;;;;;;;11.80;5.03;;;;;;;;;;10469081;28;20109;-76
2023/07/01 06:00:33;;;;;;;7.10;3.10;;;;;;;;;;10464113;28;20041;-75
2023/07/01 06:05:38;;;;;;;3.72;2.03;;;;;;;;;;10466919;28;20084;-75
2023/07/01 06:10:41;;;;;;;12.10;5.18;;;;;;;;;;10465992;28;20036;-76
2023/07/01 06:15:44;;;;;;;8.73;4.65;;;;;;;;;;10467189;28;20046;-76
2023/07/01 06:20:49;;;;;;;9.48;4.78;;;;;;;;;;10464833;28;20179;-76
2023/07/01 06:25:51;;;;;;;10.38;5.03;;;;;;;;;;10467362;28;20037;-76
2023/07/01 06:30:55;;;;;;;7.43;2.88;;;;;;;;;;10467787;28;20106;-76
2023/07/01 06:35:59;;;;;;;8.70;4.33;;;;;;;;;;10471158;28;20059;-76
2023/07/01 06:41:02;;;;;;;12.13;4.70;;;;;;;;;;10471129;28;20115;-75
2023/07/01 06:46:06;;;;;;;7.90;4.00;;;;;;;;;;10478439;28;20387;-77
2023/07/01 06:51:10;;;;;;;6.93;3.95;;;;;;;;;;10476688;28;20049;-76
2023/07/01 06:56:13;;;;;;;5.70;3.38;;;;;;;;;;10475115;28;20090;-76
2023/07/01 07:01:16;;;;;;;7.72;4.05;;;;;;;;;;10471657;28;20052;-76
2023/07/01 07:06:20;;;;;;;6.93;3.83;;;;;;;;;;10473030;28;20068;-77
2023/07/01 07:11:22;;;;;;;7.82;4.13;;;;;;;;;;10471930;28;20057;-78
2023/07/01 07:16:26;;;;;;;4.87;2.17;;;;;;;;;;10474610;28;20040;-81
2023/07/01 07:21:33;;;;;;;6.97;3.47;;;;;;;;;;10472513;28;20048;-81
2023/07/01 07:26:37;;;;;;;7.60;3.30;;;;;;;;;;10471323;28;20123;-80
2023/07/01 07:31:40;;;;;;;6.47;3.38;;;;;;;;;;10468515;28;20051;-81
2023/07/01 07:36:45;;;;;;;8.27;3.80;;;;;;;;;;10477628;28;20044;-82
2023/07/01 07:41:49;;;;;;;7.70;2.88;;;;;;;;;;10476940;28;20512;-81
2023/07/01 07:46:52;;;;;;;6.40;3.17;;;;;;;;;;10471066;28;20044;-81
2023/07/01 07:52:00;;;;;;;5.95;3.05;;;;;;;;;;10475277;28;20647;-82
2023/07/01 07:57:04;;;;;;;4.80;2.33;;;;;;;;;;10474563;28;20044;-82
2023/07/01 08:02:07;;;;;;;4.45;2.53;;;;;;;;;;10471360;28;20052;-82
2023/07/01 08:07:12;;;;;;;5.35;3.15;;;;;;;;;;10469936;28;20505;-81
2023/07/01 08:12:17;;;;;;;7.05;3.10;;;;;;;;;;10473691;28;20493;-81
2023/07/01 08:17:21;;;;;;;8.48;3.28;;;;;;;;;;10468129;28;20072;-81
2023/07/01 08:22:23;;;;;;;;;;;;;;;;;;10468185;28;20961;-81
2023/07/01 08:27:27;;;;;;;6.53;2.50;;;;;;;;;;10476107;28;19924;-80
2023/07/01 08:32:30;;;;;;;4.88;2.72;;;;;;;;;;10464934;28;20521;-81
2023/07/01 08:37:33;;;;;;;6.35;3.05;;;;;;;;;;10468346;28;20347;-80
2023/07/01 08:42:40;;;;;;;6.45;3.10;;;;;;;;;;10473402;28;20135;-80
2023/07/01 08:47:43;;;;;;;5.63;3.15;;;;;;;;;;10476105;28;20044;-80
2023/07/01 08:52:47;;;;;;;5.57;2.67;;;;;;;;;;10466975;28;20525;-81
2023/07/01 08:57:52;;;;;;;3.75;2.28;;;;;;;;;;10467203;28;20491;-81
2023/07/01 09:02:54;;;;;;;3.70;2.40;;;;;;;;;;10467952;28;20050;-81
2023/07/01 09:07:57;;;;;;;5.10;2.63;;;;;;;;;;10469795;28;20044;-80
2023/07/01 09:13:10;;;;;;;5.28;2.67;;;;;;;;;;10464466;28;20044;-81
2023/07/01 09:18:21;;;;;;;3.53;2.40;;;;;;;;;;10469947;28;20044;-82
2023/07/01 09:23:28;;;;;;;3.95;2.80;;;;;;;;;;10465959;28;20117;-81
2023/07/01 09:28:32;;;;;;;4.82;2.88;;;;;;;;;;10473362;28;20044;-81
2023/07/01 09:33:36;;;;;;;3.78;2.80;;;;;;;;;;10472631;28;20049;-82
2023/07/01 09:38:53;;;;;;;5.57;3.10;;;;;;;;;;10469118;28;20035;-82
2023/07/01 09:43:58;;;;;;;5.28;3.03;;;;;;;;;;10474492;28;20762;-87
2023/07/01 09:49:01;;;;;;;5.82;2.78;;;;;;;;;;10469205;28;20037;-84
2023/07/01 09:54:23;;;;;;;5.80;2.88;;;;;;;;;;10465664;28;20509;-84
2023/07/01 09:59:27;;;;;;;7.15;2.58;;;;;;;;;;10465666;28;20052;-83
2023/07/01 10:04:31;;;;;;;4.65;2.60;;;;;;;;;;10476311;28;20583;-82
2023/07/01 10:09:34;;;;;;;3.45;2.50;;;;;;;;;;10487649;28;20132;-83
2023/07/01 10:14:43;;;;;;;2.75;1.65;;;;;;;;;;10474824;28;20113;-78
2023/07/01 10:19:51;;;;;;;4.35;2.10;;;;;;;;;;10476126;28;20452;-78
2023/07/01 10:25:03;;;;;;;3.50;2.28;;;;;;;;;;10474304;28;20075;-79
2023/07/01 10:30:15;;;;;;;4.20;2.65;;;;;;;;;;10474022;28;20469;-78
2023/07/01 10:35:39;;;;;;;3.67;2.63;;;;;;;;;;10478896;28;20032;-80
2023/07/01 10:41:08;;;;;;;6.80;2.22;;;;;;;;;;10501173;28;20051;-80
2023/07/01 10:46:28;;;;;;;4.35;2.65;;;;;;;;;;10501804;28;20552;-80
2023/07/01 10:52:18;;;;;;;4.65;2.35;;;;;;;;;;10518072;27;20055;-80
2023/07/01 10:57:28;;;;;;;5.50;1.88;;;;;;;;;;10546483;27;20404;-80
2023/07/01 11:02:43;;;;;;;4.40;2.60;;;;;;;;;;10556698;27;20055;-81
2023/07/01 11:08:25;;;;;;;4.45;2.63;;;;;;;;;;10555822;27;20051;-81
2023/07/01 11:13:48;;;;;;;3.83;2.47;;;;;;;;;;10565656;27;20527;-80
2023/07/01 11:19:02;;;;;;;4.45;2.55;;;;;;;;;;10544007;28;20137;-80
2023/07/01 11:24:30;;;;;;;3.40;2.28;;;;;;;;;;10543257;28;20040;-79
2023/07/01 11:29:40;;;;;;;3.45;2.40;;;;;;;;;;10539323;27;20569;-79
2023/07/01 11:34:59;;;;;;;4.43;2.97;;;;;;;;;;10556966;27;20063;-79
2023/07/01 11:40:17;;;;;;;5.85;2.42;;;;;;;;;;10539187;27;20608;-79
2023/07/01 11:45:22;;;;;;;3.60;2.40;;;;;;;;;;10537785;28;20607;-80
2023/07/01 11:50:35;;;;;;;4.50;2.47;;;;;;;;;;10548003;27;20032;-80
2023/07/01 11:55:48;;;;;;;3.28;2.00;;;;;;;;;;10558546;28;20112;-80
2023/07/01 12:01:00;;;;;;;3.40;1.83;;;;;;;;;;10557940;27;20581;-81
2023/07/01 12:06:22;;;;;;;6.70;2.38;;;;;;;;;;10522766;27;20131;-83
2023/07/01 12:17:31;;;;;;;5.20;2.60;;;;;;;;;;10553834;27;20066;-84
2023/07/01 12:22:50;;;;;;;5.03;2.95;;;;;;;;;;10555166;27;20052;-81
2023/07/01 12:28:02;;;;;;;4.63;2.70;;;;;;;;;;10556922;27;20040;-82
2023/07/01 12:33:18;;;;;;;3.33;2.10;;;;;;;;;;10560629;27;20115;-79
2023/07/01 12:38:40;;;;;;;3.85;2.30;;;;;;;;;;10536295;28;20047;-85
2023/07/01 12:44:01;;;;;;;12.57;2.88;;;;;;;;;;10539062;27;20231;-79
2023/07/01 12:49:11;;;;;;;1.77;1.60;;;;;;;;;;10551000;27;20051;-78
2023/07/01 12:54:19;;;;;;;3.13;2.20;;;;;;;;;;10551336;27;20050;-79
2023/07/01 12:59:43;;;;;;;3.67;2.45;;;;;;;;;;10552025;27;20177;-78
2023/07/01 13:05:00;;;;;;;3.63;2.23;;;;;;;;;;10534594;27;20074;-79
2023/07/01 13:10:22;;;;;;;3.40;2.38;;;;;;;;;;10534746;27;20218;-79
2023/07/01 13:15:45;;;;;;;3.00;2.10;;;;;;;;;;10572834;27;20116;-79
2023/07/01 13:21:04;;;;;;;3.67;2.05;;;;;;;;;;10536165;28;20075;-80
2023/07/01 13:26:19;;;;;;;3.80;2.38;;;;;;;;;;10531616;28;20661;-80
2023/07/01 13:31:28;;;;;;;;;;;;;;;;;;10555962;27;20043;-80
2023/07/01 13:36:42;;;;;;;2.67;1.42;;;;;;;;;;10566061;27;19931;-80
2023/07/01 13:41:50;;;;;;;3.60;2.05;;;;;;;;;;10553341;28;20280;-78
2023/07/01 13:46:59;;;;;;;3.25;2.00;;;;;;;;;;10553359;28;20040;-80
2023/07/01 13:52:25;;;;;;;3.05;1.52;;;;;;;;;;10554551;28;20144;-82
2023/07/01 13:57:36;;;;;;;3.00;2.10;;;;;;;;;;10536000;28;20523;-80
2023/07/01 14:08:27;;;;;;;4.55;2.10;;;;;;;;;;10558942;28;20059;-80
2023/07/01 14:13:34;;;;;;;4.03;2.20;;;;;;;;;;10531348;28;20674;-80
2023/07/01 14:18:45;;;;;;;3.03;2.00;;;;;;;;;;10544196;28;20670;-80
2023/07/01 14:23:58;;;;;;;2.97;2.00;;;;;;;;;;10550773;28;20055;-79
2023/07/01 14:29:43;;;;;;;3.55;2.50;;;;;;;;;;10518613;28;20178;-80
2023/07/01 14:35:04;;;;;;;4.72;2.00;;;;;;;;;;10549303;28;20470;-80
2023/07/01 14:40:21;;;;;;;2.78;1.98;;;;;;;;;;10545645;28;20194;-80
2023/07/01 14:45:38;;;;;;;2.10;1.58;;;;;;;;;;10552068;28;20409;-79
2023/07/01 14:50:55;;;;;;;3.08;1.92;;;;;;;;;;10552786;27;20509;-79
2023/07/01 15:01:42;;;;;;;3.03;1.52;;;;;;;;;;10554981;27;20055;-79
2023/07/01 15:06:53;;;;;;;;;;;;;;;;;;10560922;27;20150;-80
2023/07/01 15:12:05;;;;;;;3.13;1.83;;;;;;;;;;10573235;27;19920;-79
2023/07/01 15:17:14;;;;;;;3.45;2.08;;;;;;;;;;10577709;27;20035;-79
2023/07/01 15:22:32;;;;;;;4.20;2.28;;;;;;;;;;10572775;27;20122;-80
2023/07/01 15:28:00;;;;;;;3.83;2.33;;;;;;;;;;10595933;27;20122;-79
2023/07/01 15:33:16;;;;;;;2.63;1.70;;;;;;;;;;10595246;27;20075;-78
2023/07/01 15:38:36;;;;;;;3.88;2.05;;;;;;;;;;10578738;27;20082;-79
2023/07/01 15:44:04;;;;;;;3.58;1.73;;;;;;;;;;10613349;27;20048;-78
2023/07/01 15:49:15;;;;;;;3.97;2.42;;;;;;;;;;10596885;27;20046;-79
2023/07/01 15:54:30;;;;;;;5.55;1.92;;;;;;;;;;10607070;27;20036;-80
2023/07/01 15:59:53;;;;;;;6.35;3.00;;;;;;;;;;10584078;27;20043;-79
2023/07/01 16:05:06;;;;;;;6.68;3.60;;;;;;;;;;10583813;27;20058;-78
2023/07/01 16:10:16;;;;;;;7.10;3.60;;;;;;;;;;10546619;27;20039;-79
2023/07/01 16:15:32;;;;;;;6.30;3.47;;;;;;;;;;10563678;27;20043;-79
2023/07/01 16:20:57;;;;;;;6.75;3.00;;;;;;;;;;10551548;27;20055;-79
2023/07/01 16:26:07;;;;;;;6.82;3.50;;;;;;;;;;10564233;27;20047;-79
2023/07/01 16:36:41;;;;;;;8.88;4.03;;;;;;;;;;10556750;27;20058;-80
2023/07/01 16:41:53;;;;;;;9.48;4.65;;;;;;;;;;10560715;27;20035;-80
2023/07/01 16:47:01;;;;;;;7.45;3.78;;;;;;;;;;10553618;27;20067;-79
2023/07/01 16:52:28;;;;;;;8.07;3.40;;;;;;;;;;10561747;27;20036;-80
2023/07/01 16:57:40;;;;;;;7.47;3.83;;;;;;;;;;10551645;27;20050;-78
2023/07/01 17:03:01;;;;;;;9.57;4.03;;;;;;;;;;10535573;27;20039;-79
2023/07/01 17:08:28;;;;;;;5.72;3.17;;;;;;;;;;10536669;27;20061;-78
2023/07/01 17:13:39;;;;;;;6.85;3.30;;;;;;;;;;10529082;28;20052;-78
2023/07/01 17:18:52;;;;;;;6.93;3.67;;;;;;;;;;10552387;27;20134;-79
2023/07/01 17:24:01;;;;;;;9.10;3.58;;;;;;;;;;10549880;27;20492;-79
2023/07/01 17:29:13;;;;;;;6.25;3.15;;;;;;;;;;10552134;27;20054;-79
2023/07/01 17:34:30;;;;;;;7.70;2.95;;;;;;;;;;10555425;28;20036;-79
2023/07/01 17:39:53;;;;;;;5.68;3.60;;;;;;;;;;10532998;27;20062;-79
2023/07/01 17:45:07;;;;;;;7.72;3.58;;;;;;;;;;10529861;28;20120;-79
2023/07/01 17:50:20;;;;;;;6.80;3.53;;;;;;;;;;10551543;28;20048;-79
2023/07/01 17:55:43;;;;;;;6.05;3.47;;;;;;;;;;10551348;28;20055;-79
2023/07/01 18:00:50;;;;;;;5.15;3.00;;;;;;;;;;10552622;28;20062;-79
2023/07/01 18:06:03;;;;;;;6.95;3.78;;;;;;;;;;10536297;28;20126;-80
2023/07/01 18:11:10;;;;;;;6.15;3.60;;;;;;;;;;10569317;27;20042;-80
2023/07/01 18:16:24;;;;;;;6.20;3.35;;;;;;;;;;10557378;28;20118;-80
2023/07/01 18:21:29;;;;;;;11.70;4.00;;;;;;;;;;10534571;28;20066;-79
2023/07/01 18:32:09;;;;;;;7.60;3.25;;;;;;;;;;10559805;27;20046;-80
2023/07/01 18:37:14;;;;;;;4.50;2.50;;;;;;;;;;10562823;27;20043;-80
2023/07/01 18:42:22;;;;;;;6.40;3.25;;;;;;;;;;10561831;27;20067;-80
2023/07/01 18:47:31;;;;;;;8.25;3.00;;;;;;;;;;10522974;27;20113;-79
2023/07/01 18:52:42;;;;;;;6.63;3.43;;;;;;;;;;10562342;27;20484;-80
2023/07/01 18:57:50;;;;;;;5.75;2.78;;;;;;;;;;10560895;27;20043;-78
2023/07/01 19:03:02;;;;;;;6.88;3.03;;;;;;;;;;10557136;27;20050;-79
2023/07/01 19:08:11;;;;;;;5.00;2.72;;;;;;;;;;10560242;27;20152;-79
2023/07/01 19:13:21;;;;;;;5.93;2.92;;;;;;;;;;10560417;27;20044;-79
2023/07/01 19:18:28;;;;;;;5.22;2.67;;;;;;;;;;10556386;27;20083;-80
2023/07/01 19:23:38;;;;;;;3.83;2.78;;;;;;;;;;10552781;27;20046;-80
2023/07/01 19:28:46;;;;;;;6.53;3.47;;;;;;;;;;10558791;27;20073;-80
2023/07/01 19:34:02;;;;;;;6.07;2.70;;;;;;;;;;10554920;27;20097;-80
2023/07/01 19:39:11;;;;;;;5.70;2.88;;;;;;;;;;10539659;27;20035;-79
2023/07/01 19:44:27;;;;;;;5.00;3.03;;;;;;;;;;10560515;27;20469;-80
2023/07/01 19:54:56;;;;;;;3.67;2.33;;;;;;;;;;10542756;27;20047;-80
2023/07/01 20:00:01;;;;;;;4.05;2.30;;;;;;;;;;10557868;27;20181;-79
2023/07/01 20:05:18;;;;;;;4.03;2.00;;;;;;;;;;10553293;27;20501;-79
2023/07/01 20:10:26;;;;;;;3.55;2.30;;;;;;;;;;10538080;27;20050;-80
2023/07/01 20:15:34;;;;;;;4.70;1.85;;;;;;;;;;10558603;27;20039;-79
2023/07/01 20:26:05;;;;;;;;;;;;;;;;;;10544133;28;20047;-81
2023/07/01 20:31:30;;;;;;;3.97;1.35;;;;;;;;;;10547362;27;20389;-81
2023/07/01 20:36:36;;;;;;;3.53;2.13;;;;;;;;;;10539987;27;20044;-81
2023/07/01 20:47:29;;;;;;;1.42;1.20;;;;;;;;;;10558222;27;20081;-81
2023/07/01 20:52:39;;;;;;;4.22;2.00;;;;;;;;;;10560276;28;20083;-79
2023/07/01 20:58:02;;;;;;;3.55;2.00;;;;;;;;;;10534868;28;20043;-78
2023/07/01 21:03:08;;;;;;;2.80;1.75;;;;;;;;;;10552626;27;20253;-80
2023/07/01 21:08:35;;;;;;;3.55;2.03;;;;;;;;;;10560413;27;20207;-79
2023/07/01 21:13:51;;;;;;;2.70;1.80;;;;;;;;;;10529493;28;20047;-80
2023/07/01 21:19:01;;;;;;;4.13;1.70;;;;;;;;;;10552246;28;20047;-80
2023/07/01 21:24:20;;;;;;;3.15;1.63;;;;;;;;;;10541534;28;20039;-79
2023/07/01 21:29:38;;;;;;;2.83;1.40;;;;;;;;;;10552485;27;20037;-80
2023/07/01 21:34:46;;;;;;;2.92;1.40;;;;;;;;;;10557738;27;20059;-79
2023/07/01 21:39:50;;;;;;;3.88;1.70;;;;;;;;;;10548452;27;20032;-79
2023/07/01 21:45:18;;;;;;;4.25;1.90;;;;;;;;;;10514768;28;20035;-80
2023/07/01 21:50:44;;;;;;;4.57;1.90;;;;;;;;;;10539827;28;20457;-81
2023/07/01 21:55:53;;;;;;;7.38;2.20;;;;;;;;;;10554369;28;20143;-81
2023/07/01 22:01:15;;;;;;;4.70;1.60;;;;;;;;;;10562395;27;20047;-79
2023/07/01 22:11:41;;;;;;;3.40;1.88;;;;;;;;;;10541267;27;20043;-75
2023/07/01 22:17:02;;;;;;;4.72;2.30;;;;;;;;;;10558654;27;20120;-75
2023/07/01 22:22:24;;;;;;;2.95;2.08;;;;;;;;;;10539009;28;20657;-75
2023/07/01 22:28:04;;;;;;;4.28;2.50;;;;;;;;;;10554893;27;21989;-75
2023/07/01 22:33:08;;;;;;;3.83;2.30;;;;;;;;;;10538977;27;20117;-75
2023/07/01 22:38:27;;;;;;;2.65;1.85;;;;;;;;;;10541242;27;20083;-76
2023/07/01 22:43:40;;;;;;;4.65;2.13;;;;;;;;;;10555228;27;20133;-74
2023/07/01 22:48:51;;;;;;;4.00;2.58;;;;;;;;;;10552443;27;20056;-74
2023/07/01 22:53:58;;;;;;;3.75;2.00;;;;;;;;;;10558045;27;20048;-73
2023/07/01 22:59:11;;;;;;;4.55;1.88;;;;;;;;;;10558172;27;20408;-73
2023/07/01 23:04:19;;;;;;;5.65;2.70;;;;;;;;;;10538612;27;20131;-74
2023/07/01 23:09:26;;;;;;;3.30;1.85;;;;;;;;;;10553715;27;20058;-74
2023/07/01 23:14:32;;;;;;;4.97;2.50;;;;;;;;;;10535383;27;20036;-74
2023/07/01 23:19:37;;;;;;;4.30;2.00;;;;;;;;;;10555588;27;20051;-73
2023/07/01 23:24:48;;;;;;;4.28;2.33;;;;;;;;;;10536956;27;20060;-74
2023/07/01 23:29:55;;;;;;;3.05;1.95;;;;;;;;;;10556421;27;20043;-74
2023/07/01 23:35:02;;;;;;;3.25;1.35;;;;;;;;;;10552757;27;20551;-73
2023/07/01 23:40:13;;;;;;;5.07;2.13;;;;;;;;;;10556484;27;20553;-74
2023/07/01 23:45:19;;;;;;;3.35;2.08;;;;;;;;;;10555275;27;20516;-75
2023/07/01 23:50:26;;;;;;;3.88;2.22;;;;;;;;;;10558290;27;20044;-75
2023/07/01 23:55:39;;;;;;;3.40;1.92;;;;;;;;;;10555747;27;20051;-74
